Terminal Aerodrome Forecast
Issued by NWS Sioux Falls, SD

Home | Current Version | Previous Version | Text Only | Print | Product List | Glossary Off
Versions: 1 2 3 4 5 6 7 8 9 10 11 12 13 14

000
FTUS43 KFSD 171700
TAFFSD
TAF
KFSD 171734Z 1718/1818 04006KT P6SM FEW110
     FM172300 08005KT P6SM BKN100
     FM180300 11010KT P6SM BKN090
     FM181000 12013KT P6SM OVC070
     FM181600 14017G27KT P6SM BKN080=

USA.gov is the U.S. government's official web portal to all federal, state and local government web resources and services.